createdAt,value
2022-11-02T00:00:53.849Z,12.80
2022-11-02T00:03:20.836Z,12.70
2022-11-02T00:05:47.571Z,12.80
2022-11-02T00:08:14.339Z,12.80
2022-11-02T00:10:41.043Z,12.70
2022-11-02T00:13:07.933Z,12.80
2022-11-02T00:15:36.103Z,12.80
2022-11-02T00:18:07.851Z,12.80
2022-11-02T00:20:37.142Z,12.80
2022-11-02T00:23:07.607Z,12.80
2022-11-02T00:25:34.799Z,12.80
2022-11-02T00:28:01.605Z,12.80
2022-11-02T00:30:28.973Z,12.70
2022-11-02T00:32:55.732Z,12.80
2022-11-02T00:35:22.411Z,12.80
2022-11-02T00:37:49.079Z,12.80
2022-11-02T00:40:15.912Z,12.80
2022-11-02T00:42:42.701Z,12.80
2022-11-02T00:45:09.823Z,12.90
2022-11-02T00:47:37.111Z,12.90
2022-11-02T00:50:04.419Z,12.90
2022-11-02T00:52:31.601Z,12.90
2022-11-02T00:54:58.346Z,12.80
2022-11-02T00:57:25.095Z,12.80
2022-11-02T00:59:51.824Z,12.90
2022-11-02T01:02:18.879Z,12.80
2022-11-02T01:04:45.684Z,12.90
2022-11-02T01:07:12.443Z,12.90
2022-11-02T01:09:39.225Z,12.90
2022-11-02T01:12:06.437Z,12.90
2022-11-02T01:14:33.243Z,12.90
2022-11-02T01:16:59.950Z,13.00
2022-11-02T01:19:26.976Z,12.90
2022-11-02T01:21:53.763Z,12.80
2022-11-02T01:24:20.484Z,12.80
2022-11-02T01:26:51.781Z,12.80
2022-11-02T01:29:18.844Z,12.90
2022-11-02T01:31:45.644Z,12.90
2022-11-02T01:34:12.811Z,12.90
2022-11-02T01:36:39.725Z,12.90
2022-11-02T01:39:06.932Z,12.90
2022-11-02T01:41:33.837Z,12.90
2022-11-02T01:44:03.607Z,12.90
2022-11-02T01:46:41.556Z,12.90
2022-11-02T01:49:19.740Z,12.90
2022-11-02T01:51:57.743Z,12.90
2022-11-02T01:54:29.288Z,12.90
2022-11-02T01:57:04.174Z,12.80
2022-11-02T01:59:48.364Z,12.80
2022-11-02T02:02:19.905Z,12.80
2022-11-02T02:04:52.125Z,12.80
2022-11-02T02:07:19.756Z,12.70
2022-11-02T02:09:50.408Z,12.60
2022-11-02T02:12:18.629Z,12.60
2022-11-02T02:14:45.556Z,12.50
2022-11-02T02:17:32.184Z,12.50
2022-11-02T02:20:20.437Z,12.60
2022-11-02T02:23:21.022Z,12.60
2022-11-02T02:26:10.898Z,12.60
2022-11-02T02:28:43.708Z,12.50
2022-11-02T02:31:19.339Z,12.40
2022-11-02T02:33:49.710Z,12.40
2022-11-02T02:36:30.374Z,12.30
2022-11-02T02:39:14.329Z,12.30
2022-11-02T02:41:46.182Z,12.30
2022-11-02T02:44:23.600Z,12.30
2022-11-02T02:46:56.902Z,12.20
2022-11-02T02:49:34.452Z,12.20
2022-11-02T02:52:03.522Z,12.10
2022-11-02T02:54:40.454Z,12.10
2022-11-02T02:57:11.772Z,12.10
2022-11-02T02:59:43.443Z,12.00
2022-11-02T03:02:21.225Z,12.00
2022-11-02T03:04:48.079Z,12.00
2022-11-02T03:07:21.036Z,12.00
2022-11-02T03:09:47.663Z,12.00
2022-11-02T03:12:31.734Z,11.90
2022-11-02T03:15:25.293Z,11.90
2022-11-02T03:17:52.537Z,11.80
2022-11-02T03:20:45.717Z,11.80
2022-11-02T03:23:16.874Z,11.80
2022-11-02T03:26:03.859Z,11.90
2022-11-02T03:28:57.506Z,11.80
2022-11-02T03:31:39.213Z,11.80
2022-11-02T03:34:05.868Z,11.80
2022-11-02T03:36:39.123Z,11.80
2022-11-02T03:39:11.452Z,11.80
2022-11-02T03:41:42.530Z,11.80
2022-11-02T03:44:14.926Z,11.70
2022-11-02T03:46:44.152Z,11.70
2022-11-02T03:49:14.942Z,11.70
2022-11-02T03:51:45.186Z,11.60
2022-11-02T03:54:28.192Z,11.60
2022-11-02T03:56:58.111Z,11.60
2022-11-02T03:59:24.826Z,11.50
2022-11-02T04:01:52.727Z,11.50
2022-11-02T04:04:19.604Z,11.50
2022-11-02T04:06:48.157Z,11.50
2022-11-02T04:09:15.537Z,11.40
2022-11-02T04:12:01.082Z,11.40
2022-11-02T04:14:40.231Z,11.40
2022-11-02T04:17:27.696Z,11.40
2022-11-02T04:19:54.668Z,11.30
2022-11-02T04:22:40.302Z,11.30
2022-11-02T04:25:15.795Z,11.20
2022-11-02T04:27:42.862Z,11.10
2022-11-02T04:30:10.511Z,11.10
2022-11-02T04:33:04.053Z,11.10
2022-11-02T04:35:31.113Z,11.10
2022-11-02T04:38:17.067Z,11.10
2022-11-02T04:40:43.915Z,11.10
2022-11-02T04:43:10.888Z,11.20
2022-11-02T04:45:37.904Z,11.10
2022-11-02T04:48:07.547Z,11.00
2022-11-02T04:50:36.374Z,11.00
2022-11-02T04:53:04.992Z,11.00
2022-11-02T04:55:31.963Z,11.00
2022-11-02T04:57:58.735Z,11.00
2022-11-02T05:00:25.470Z,11.00
2022-11-02T05:02:52.255Z,11.00
2022-11-02T05:05:19.222Z,11.00
2022-11-02T05:07:45.954Z,10.90
2022-11-02T05:10:12.880Z,10.80
2022-11-02T05:12:39.668Z,10.90
2022-11-02T05:15:06.810Z,10.80
2022-11-02T05:17:33.631Z,10.80
2022-11-02T05:20:00.691Z,10.80
2022-11-02T05:22:27.446Z,10.80
2022-11-02T05:24:54.521Z,10.80
2022-11-02T05:27:21.356Z,10.80
2022-11-02T05:29:48.045Z,10.90
2022-11-02T05:32:14.756Z,10.80
2022-11-02T05:34:41.488Z,10.80
2022-11-02T05:37:08.240Z,10.80
2022-11-02T05:39:35.523Z,10.80
2022-11-02T05:42:02.302Z,10.80
2022-11-02T05:44:29.086Z,10.70
2022-11-02T05:46:55.828Z,10.70
2022-11-02T05:49:22.640Z,10.80
2022-11-02T05:51:49.392Z,10.80
2022-11-02T05:54:16.196Z,10.80
2022-11-02T05:56:43.018Z,10.80
2022-11-02T05:59:10.225Z,10.80
2022-11-02T06:01:37.077Z,10.80
2022-11-02T06:04:03.958Z,10.90
2022-11-02T06:06:30.818Z,10.80
2022-11-02T06:08:59.696Z,10.80
2022-11-02T06:11:29.600Z,10.70
2022-11-02T06:13:56.371Z,10.80
2022-11-02T06:16:23.572Z,10.90
2022-11-02T06:18:50.547Z,11.00
2022-11-02T06:21:17.883Z,10.90
2022-11-02T06:23:48.111Z,10.90
2022-11-02T06:26:15.314Z,11.00
2022-11-02T06:28:42.448Z,11.00
2022-11-02T06:31:09.237Z,11.10
2022-11-02T06:33:36.048Z,11.10
2022-11-02T06:36:02.835Z,11.00
2022-11-02T06:38:29.649Z,11.00
2022-11-02T06:41:06.408Z,11.00
2022-11-02T06:43:38.249Z,10.90
2022-11-02T06:46:05.889Z,11.00
2022-11-02T06:48:35.273Z,11.00
2022-11-02T06:51:04.465Z,11.00
2022-11-02T06:53:31.489Z,11.00
2022-11-02T06:55:59.942Z,11.10
2022-11-02T06:58:27.277Z,11.00
2022-11-02T07:01:02.867Z,11.00
2022-11-02T07:03:30.631Z,11.00
2022-11-02T07:05:57.687Z,11.00
2022-11-02T07:08:24.841Z,11.00
2022-11-02T07:10:51.876Z,11.10
2022-11-02T07:13:18.923Z,11.10
2022-11-02T07:15:46.250Z,11.10
2022-11-02T07:18:13.741Z,11.10
2022-11-02T07:20:40.483Z,11.10
2022-11-02T07:23:07.548Z,11.20
2022-11-02T07:25:35.269Z,11.20
2022-11-02T07:28:03.526Z,11.20
2022-11-02T07:30:32.778Z,11.20
2022-11-02T07:33:02.979Z,11.20
2022-11-02T07:35:30.511Z,11.20
2022-11-02T07:38:00.167Z,11.30
2022-11-02T07:40:28.296Z,11.40
2022-11-02T07:42:55.465Z,11.50
2022-11-02T07:45:26.171Z,11.50
2022-11-02T07:47:53.199Z,11.60
2022-11-02T07:50:22.962Z,11.70
2022-11-02T07:52:52.158Z,11.70
2022-11-02T07:55:21.875Z,11.80
2022-11-02T07:57:55.820Z,12.10
2022-11-02T08:00:27.832Z,12.10
2022-11-02T08:02:59.688Z,12.20
2022-11-02T08:05:28.991Z,12.40
2022-11-02T08:07:59.533Z,12.50
2022-11-02T08:10:27.642Z,12.60
2022-11-02T08:12:55.271Z,12.60
2022-11-02T08:15:22.120Z,12.60
2022-11-02T08:17:59.689Z,12.80
2022-11-02T08:20:26.453Z,12.80
2022-11-02T08:22:53.305Z,12.80
2022-11-02T08:25:20.156Z,12.90
2022-11-02T08:27:46.909Z,13.10
2022-11-02T08:30:13.712Z,13.10
2022-11-02T08:32:40.467Z,13.20
2022-11-02T08:35:07.622Z,13.10
2022-11-02T08:37:34.338Z,13.20
2022-11-02T08:40:01.097Z,13.30
2022-11-02T08:42:27.888Z,13.30
2022-11-02T08:44:54.619Z,13.40
2022-11-02T08:47:21.745Z,13.50
2022-11-02T08:49:48.558Z,13.50
2022-11-02T08:52:15.318Z,13.50
2022-11-02T08:54:42.023Z,13.50
2022-11-02T08:57:08.824Z,13.60
2022-11-02T08:59:35.633Z,13.70
2022-11-02T09:02:02.614Z,13.80
2022-11-02T09:04:29.463Z,13.90
2022-11-02T09:06:56.232Z,13.90
2022-11-02T09:09:23.035Z,13.90
2022-11-02T09:11:52.532Z,14.00
2022-11-02T09:14:19.286Z,13.90
2022-11-02T09:16:46.188Z,13.80
2022-11-02T09:19:12.915Z,13.90
2022-11-02T09:21:39.619Z,14.10
2022-11-02T09:24:06.607Z,14.00
2022-11-02T09:26:33.343Z,14.20
2022-11-02T09:29:00.108Z,14.20
2022-11-02T09:31:29.323Z,14.20
2022-11-02T09:33:56.196Z,14.20
2022-11-02T09:36:22.968Z,14.20
2022-11-02T09:38:50.151Z,14.30
2022-11-02T09:41:43.365Z,14.10
2022-11-02T09:44:42.661Z,14.40
2022-11-02T09:48:24.835Z,14.40
2022-11-02T09:50:02.286Z,14.40
2022-11-02T09:52:36.034Z,14.60
2022-11-02T09:55:12.434Z,14.60
2022-11-02T09:57:40.671Z,14.60
2022-11-02T10:00:13.700Z,14.60
2022-11-02T10:02:43.395Z,14.70
2022-11-02T10:05:35.461Z,14.70
2022-11-02T10:08:30.392Z,14.90
2022-11-02T10:11:21.952Z,14.90
2022-11-02T10:14:15.636Z,14.80
2022-11-02T10:16:55.309Z,14.90
2022-11-02T10:19:26.194Z,14.90
2022-11-02T10:21:58.396Z,15.00
2022-11-02T10:24:44.452Z,15.10
2022-11-02T10:27:23.660Z,15.30
2022-11-02T10:30:06.382Z,15.40
2022-11-02T10:32:36.404Z,15.20
2022-11-02T10:38:19.781Z,15.00
2022-11-02T10:41:03.313Z,15.10
2022-11-02T10:43:55.470Z,15.30
2022-11-02T10:46:34.170Z,15.60
2022-11-02T10:49:10.442Z,15.30
2022-11-02T10:51:37.302Z,15.30
2022-11-02T10:54:17.881Z,15.80
2022-11-02T10:56:50.319Z,15.70
2022-11-02T10:59:23.659Z,15.50
2022-11-02T11:01:56.493Z,15.60
2022-11-02T11:04:31.860Z,15.50
2022-11-02T11:07:12.441Z,15.70
2022-11-02T11:09:55.016Z,15.50
2022-11-02T11:12:39.063Z,15.60
2022-11-02T11:20:43.017Z,15.60
2022-11-02T11:23:10.329Z,15.60
2022-11-02T11:25:37.122Z,15.50
2022-11-02T11:28:25.505Z,15.70
2022-11-02T11:31:14.674Z,15.80
2022-11-02T11:33:45.180Z,15.90
2022-11-02T11:36:31.053Z,15.60
2022-11-02T11:39:19.630Z,15.80
2022-11-02T11:41:46.447Z,15.70
2022-11-02T11:44:15.424Z,16.20
2022-11-02T11:46:49.196Z,16.30
2022-11-02T11:49:47.897Z,16.20
2022-11-02T11:52:29.954Z,16.30
2022-11-02T11:55:18.169Z,16.30
2022-11-02T11:57:45.485Z,16.20
2022-11-02T12:00:29.113Z,16.40
2022-11-02T12:03:11.859Z,16.50
2022-11-02T12:06:14.405Z,16.50
2022-11-02T12:09:22.600Z,16.40
2022-11-02T12:12:01.217Z,16.50
2022-11-02T12:14:37.794Z,16.40
2022-11-02T12:17:10.857Z,16.20
2022-11-02T12:19:49.675Z,16.40
2022-11-02T12:22:44.406Z,16.70
2022-11-02T12:25:29.151Z,16.40
2022-11-02T12:28:28.124Z,16.70
2022-11-02T12:30:57.691Z,16.30
2022-11-02T12:33:48.536Z,16.40
2022-11-02T12:37:26.468Z,16.60
2022-11-02T12:40:01.425Z,16.20
2022-11-02T12:42:29.855Z,16.50
2022-11-02T12:45:20.009Z,16.60
2022-11-02T12:48:02.707Z,16.20
2022-11-02T12:51:02.821Z,16.10
2022-11-02T12:53:54.193Z,16.00
2022-11-02T12:56:47.477Z,16.20
2022-11-02T12:59:30.127Z,16.20
2022-11-02T13:02:19.933Z,16.10
2022-11-02T13:04:53.248Z,16.00
2022-11-02T13:07:50.562Z,16.00
2022-11-02T13:10:35.683Z,16.70
2022-11-02T13:13:05.232Z,17.30
2022-11-02T13:15:35.337Z,17.40
2022-11-02T13:18:29.303Z,17.70
2022-11-02T13:20:59.344Z,17.90
2022-11-02T13:26:09.718Z,17.90
2022-11-02T13:28:49.507Z,17.60
2022-11-02T13:31:48.633Z,17.60
2022-11-02T13:34:20.101Z,18.20
2022-11-02T13:36:47.181Z,17.50
2022-11-02T13:39:38.586Z,18.10
2022-11-02T13:42:26.838Z,17.60
2022-11-02T13:45:25.043Z,17.40
2022-11-02T13:48:29.709Z,17.10
2022-11-02T13:51:25.267Z,17.10
2022-11-02T13:54:03.902Z,17.30
2022-11-02T13:56:31.179Z,17.60
2022-11-02T13:59:06.983Z,17.80
2022-11-02T14:01:41.767Z,17.30
2022-11-02T14:04:21.549Z,17.50
2022-11-02T14:07:07.686Z,17.40
2022-11-02T14:09:49.265Z,16.90
2022-11-02T14:12:31.088Z,17.00
2022-11-02T14:15:13.392Z,16.80
2022-11-02T14:17:56.800Z,16.80
2022-11-02T14:20:44.353Z,16.80
2022-11-02T14:23:14.601Z,16.60
2022-11-02T14:25:50.134Z,16.40
2022-11-02T14:28:23.955Z,16.60
2022-11-02T14:31:34.384Z,16.40
2022-11-02T14:34:38.878Z,16.00
2022-11-02T14:37:44.420Z,16.00
2022-11-02T14:40:25.107Z,15.90
2022-11-02T14:43:13.580Z,15.90
2022-11-02T14:45:59.001Z,16.00
2022-11-02T14:48:30.897Z,15.90
2022-11-02T14:51:07.840Z,15.60
2022-11-02T14:53:36.757Z,15.50
2022-11-02T14:56:04.037Z,15.50
2022-11-02T14:58:37.843Z,15.30
2022-11-02T15:01:06.313Z,15.30
2022-11-02T15:03:36.934Z,15.00
2022-11-02T15:06:07.934Z,14.80
2022-11-02T15:08:55.343Z,14.90
2022-11-02T15:11:43.954Z,14.80
2022-11-02T15:14:35.788Z,14.80
2022-11-02T15:17:12.440Z,14.70
2022-11-02T15:19:46.188Z,14.60
2022-11-02T15:22:31.565Z,14.40
2022-11-02T15:25:20.185Z,14.40
2022-11-02T15:27:48.647Z,14.40
2022-11-02T15:30:22.618Z,14.30
2022-11-02T15:33:01.717Z,14.30
2022-11-02T15:35:37.662Z,14.20
2022-11-02T15:38:28.089Z,14.00
2022-11-02T15:41:12.425Z,13.90
2022-11-02T15:43:56.736Z,13.80
2022-11-02T15:46:41.622Z,13.70
2022-11-02T15:49:27.858Z,13.50
2022-11-02T15:52:05.159Z,13.40
2022-11-02T15:54:59.898Z,13.30
2022-11-02T15:57:38.581Z,13.30
2022-11-02T16:00:21.773Z,13.30
2022-11-02T16:02:52.956Z,13.20
2022-11-02T16:05:27.928Z,13.10
2022-11-02T16:08:10.463Z,13.10
2022-11-02T16:10:38.041Z,13.00
2022-11-02T16:13:07.880Z,13.00
2022-11-02T16:15:34.652Z,12.90
2022-11-02T16:18:01.774Z,12.80
2022-11-02T16:20:32.905Z,12.80
2022-11-02T16:23:05.649Z,12.70
2022-11-02T16:25:46.867Z,12.70
2022-11-02T16:28:22.110Z,12.50
2022-11-02T16:31:18.475Z,12.50
2022-11-02T16:33:47.486Z,12.40
2022-11-02T16:36:34.742Z,12.30
2022-11-02T16:39:23.041Z,12.20
2022-11-02T16:41:55.795Z,12.00
2022-11-02T16:44:28.668Z,11.90
2022-11-02T16:47:08.002Z,11.80
2022-11-02T16:49:56.397Z,11.70
2022-11-02T16:52:35.434Z,11.60
2022-11-02T16:55:09.410Z,11.60
2022-11-02T16:57:44.758Z,11.50
2022-11-02T17:00:20.972Z,11.40
2022-11-02T17:02:48.134Z,11.40
2022-11-02T17:05:16.511Z,11.30
2022-11-02T17:07:47.732Z,11.30
2022-11-02T17:10:25.550Z,11.20
2022-11-02T17:12:52.404Z,11.10
2022-11-02T17:15:21.684Z,11.10
2022-11-02T17:17:49.095Z,11.00
2022-11-02T17:20:22.118Z,11.00
2022-11-02T17:22:51.838Z,10.90
2022-11-02T17:25:23.170Z,10.90
2022-11-02T17:27:51.763Z,10.90
2022-11-02T17:30:33.587Z,10.90
2022-11-02T17:33:23.924Z,10.80
2022-11-02T17:35:52.976Z,10.70
2022-11-02T17:38:24.739Z,10.60
2022-11-02T17:40:52.409Z,10.50
2022-11-02T17:43:20.733Z,10.50
2022-11-02T17:45:54.980Z,10.40
2022-11-02T17:48:21.740Z,10.40
2022-11-02T17:50:53.239Z,10.30
2022-11-02T17:53:20.429Z,10.30
2022-11-02T17:55:47.508Z,10.20
2022-11-02T17:58:15.239Z,10.20
2022-11-02T18:00:42.325Z,10.20
2022-11-02T18:03:19.216Z,10.30
2022-11-02T18:05:50.048Z,10.30
2022-11-02T18:08:18.969Z,10.20
2022-11-02T18:10:47.711Z,10.20
2022-11-02T18:13:16.625Z,10.20
2022-11-02T18:15:43.776Z,10.20
2022-11-02T18:18:10.645Z,10.20
2022-11-02T18:20:41.489Z,10.20
2022-11-02T18:23:14.522Z,10.10
2022-11-02T18:25:41.423Z,10.10
2022-11-02T18:28:08.439Z,10.00
2022-11-02T18:30:35.558Z,10.00
2022-11-02T18:33:02.848Z,10.10
2022-11-02T18:35:29.668Z,10.00
2022-11-02T18:37:56.676Z,9.90
2022-11-02T18:40:23.439Z,9.90
2022-11-02T18:42:50.359Z,9.90
2022-11-02T18:45:17.220Z,9.90
2022-11-02T18:47:44.200Z,9.80
2022-11-02T18:50:13.357Z,9.80
2022-11-02T18:52:42.085Z,9.80
2022-11-02T18:55:08.832Z,9.80
2022-11-02T18:57:35.579Z,9.80
2022-11-02T19:00:03.756Z,9.80
2022-11-02T19:02:30.787Z,9.70
2022-11-02T19:04:57.523Z,9.70
2022-11-02T19:07:43.178Z,9.70
2022-11-02T19:10:10.102Z,9.80
2022-11-02T19:12:37.149Z,9.80
2022-11-02T19:15:04.500Z,9.80
2022-11-02T19:17:31.493Z,9.90
2022-11-02T19:19:58.437Z,9.80
2022-11-02T19:22:26.408Z,9.90
2022-11-02T19:24:53.558Z,9.80
2022-11-02T19:27:25.299Z,9.90
2022-11-02T19:29:52.703Z,9.90
2022-11-02T19:32:20.176Z,9.90
2022-11-02T19:34:47.098Z,9.90
2022-11-02T19:37:14.146Z,9.80
2022-11-02T19:39:40.930Z,9.90
2022-11-02T19:42:07.827Z,9.90
2022-11-02T19:44:41.035Z,9.90
2022-11-02T19:47:09.563Z,10.00
2022-11-02T19:49:36.269Z,10.10
2022-11-02T19:52:03.094Z,10.10
2022-11-02T19:54:29.856Z,10.10
2022-11-02T19:56:56.654Z,10.00
2022-11-02T19:59:23.391Z,9.90
2022-11-02T20:01:50.994Z,9.90
2022-11-02T20:04:18.024Z,9.90
2022-11-02T20:06:45.254Z,10.00
2022-11-02T20:09:19.629Z,10.10
2022-11-02T20:11:47.138Z,10.10
2022-11-02T20:14:15.714Z,10.10
2022-11-02T20:16:42.537Z,10.10
2022-11-02T20:19:10.056Z,10.10
2022-11-02T20:21:42.658Z,9.90
2022-11-02T20:24:10.020Z,9.90
2022-11-02T20:26:38.978Z,9.80
2022-11-02T20:29:06.776Z,9.80
2022-11-02T20:31:38.947Z,9.70
2022-11-02T20:34:08.163Z,9.80
2022-11-02T20:36:35.042Z,9.80
2022-11-02T20:39:04.635Z,9.90
2022-11-02T20:41:31.773Z,9.90
2022-11-02T20:43:58.640Z,9.90
2022-11-02T20:46:47.433Z,9.80
2022-11-02T20:49:22.348Z,9.90
2022-11-02T20:51:56.690Z,9.90
2022-11-02T20:54:23.867Z,9.90
2022-11-02T20:56:51.074Z,10.00
2022-11-02T20:59:18.428Z,10.00
2022-11-02T21:01:45.454Z,10.00
2022-11-02T21:04:18.572Z,10.00
2022-11-02T21:06:47.966Z,10.10
2022-11-02T21:09:14.832Z,10.20
2022-11-02T21:12:00.505Z,10.20
2022-11-02T21:14:27.298Z,10.20
2022-11-02T21:16:54.089Z,10.20
2022-11-02T21:19:20.923Z,10.10
2022-11-02T21:21:47.622Z,10.10
2022-11-02T21:24:14.359Z,10.00
2022-11-02T21:26:41.155Z,10.00
2022-11-02T21:29:09.314Z,10.00
2022-11-02T21:31:36.364Z,10.00
2022-11-02T21:34:03.144Z,10.00
2022-11-02T21:36:30.337Z,10.00
2022-11-02T21:38:58.750Z,10.10
2022-11-02T21:41:28.680Z,10.00
2022-11-02T21:43:55.983Z,10.00
2022-11-02T21:46:25.402Z,10.00
2022-11-02T21:48:52.418Z,10.00
2022-11-02T21:51:21.308Z,10.00
2022-11-02T21:53:49.232Z,10.00
2022-11-02T21:56:17.148Z,10.00
2022-11-02T21:58:46.271Z,10.10
2022-11-02T22:01:40.418Z,10.10
2022-11-02T22:04:08.675Z,10.10
2022-11-02T22:06:37.584Z,10.10
2022-11-02T22:09:05.905Z,10.10
2022-11-02T22:11:33.023Z,10.20
2022-11-02T22:14:01.021Z,10.20
2022-11-02T22:16:36.353Z,10.10
2022-11-02T22:19:05.833Z,10.10
2022-11-02T22:21:35.380Z,10.20
2022-11-02T22:24:03.153Z,10.10
2022-11-02T22:26:31.181Z,10.10
2022-11-02T22:29:00.729Z,10.10
2022-11-02T22:31:33.056Z,10.00
2022-11-02T22:34:01.714Z,10.00
2022-11-02T22:36:30.500Z,10.00
2022-11-02T22:38:58.931Z,10.10
2022-11-02T22:41:25.718Z,10.10
2022-11-02T22:43:58.087Z,10.10
2022-11-02T22:46:27.028Z,10.10
2022-11-02T22:51:29.334Z,10.10
2022-11-02T22:53:59.483Z,10.20
2022-11-02T22:56:26.251Z,10.20
2022-11-02T22:58:53.062Z,10.20
2022-11-02T23:01:22.333Z,10.20
2022-11-02T23:03:49.837Z,10.10
2022-11-02T23:06:18.445Z,10.20
2022-11-02T23:08:46.074Z,10.20
2022-11-02T23:11:23.690Z,10.20
2022-11-02T23:14:00.729Z,10.20
2022-11-02T23:16:33.645Z,10.20
2022-11-02T23:19:29.239Z,10.20
2022-11-02T23:22:19.817Z,10.20
2022-11-02T23:25:06.936Z,10.20
2022-11-02T23:27:55.920Z,10.10
2022-11-02T23:30:42.026Z,10.10
2022-11-02T23:33:09.122Z,10.10
2022-11-02T23:35:54.342Z,10.10
2022-11-02T23:38:21.186Z,10.10
2022-11-02T23:40:47.930Z,10.10
2022-11-02T23:43:14.655Z,10.00
2022-11-02T23:45:41.431Z,10.10
2022-11-02T23:48:09.089Z,10.10
2022-11-02T23:50:55.095Z,10.10
2022-11-02T23:53:42.005Z,10.10
2022-11-02T23:56:35.041Z,10.10
2022-11-02T23:59:07.776Z,10.00
